createdAt,value
2023-07-15T00:01:24.549Z,4.28
2023-07-15T00:03:52.792Z,4.60
2023-07-15T00:06:22.289Z,4.72
2023-07-15T00:08:50.244Z,4.20
2023-07-15T00:11:27.123Z,4.50
2023-07-15T00:13:55.422Z,4.40
2023-07-15T00:16:22.504Z,5.00
2023-07-15T00:18:49.822Z,5.22
2023-07-15T00:21:23.967Z,5.07
2023-07-15T00:23:57.037Z,5.40
2023-07-15T00:26:26.557Z,5.68
2023-07-15T00:28:53.634Z,4.22
2023-07-15T00:31:21.133Z,4.95
2023-07-15T00:33:49.461Z,4.38
2023-07-15T00:36:17.305Z,4.00
2023-07-15T00:38:44.639Z,4.65
2023-07-15T00:41:32.846Z,4.50
2023-07-15T00:44:00.271Z,4.65
2023-07-15T00:46:54.633Z,5.00
2023-07-15T00:49:28.702Z,5.22
2023-07-15T00:52:10.695Z,5.10
2023-07-15T00:54:41.267Z,5.65
2023-07-15T00:57:10.320Z,4.68
2023-07-15T00:59:39.999Z,4.93
2023-07-15T01:02:10.126Z,4.97
2023-07-15T01:04:37.069Z,4.78
2023-07-15T01:07:07.245Z,5.10
2023-07-15T01:09:35.715Z,5.03
2023-07-15T01:12:03.017Z,4.30
2023-07-15T01:14:29.994Z,4.03
2023-07-15T01:16:57.814Z,4.95
2023-07-15T01:19:24.582Z,4.22
2023-07-15T01:21:52.423Z,5.00
2023-07-15T01:24:21.138Z,4.40
2023-07-15T01:26:48.539Z,4.50
2023-07-15T01:29:16.222Z,4.28
2023-07-15T01:31:43.464Z,4.25
2023-07-15T01:34:10.652Z,4.47
2023-07-15T01:36:37.449Z,4.60
2023-07-15T01:39:07.674Z,4.55
2023-07-15T01:41:35.569Z,4.63
2023-07-15T01:44:06.009Z,3.97
2023-07-15T01:46:35.616Z,4.45
2023-07-15T01:49:05.128Z,4.88
2023-07-15T01:51:32.498Z,4.60
2023-07-15T01:54:00.093Z,4.55
2023-07-15T01:56:29.563Z,4.65
2023-07-15T01:58:57.386Z,4.65
2023-07-15T02:01:24.657Z,4.88
2023-07-15T02:03:51.783Z,4.70
2023-07-15T02:06:19.446Z,4.78
2023-07-15T02:08:47.124Z,4.90
2023-07-15T02:11:14.621Z,4.57
2023-07-15T02:13:41.395Z,5.15
2023-07-15T02:16:08.158Z,4.40
2023-07-15T02:18:34.980Z,4.70
2023-07-15T02:21:02.406Z,4.95
2023-07-15T02:23:30.745Z,4.35
2023-07-15T02:25:57.576Z,4.75
2023-07-15T02:28:27.682Z,4.38
2023-07-15T02:30:55.564Z,5.05
2023-07-15T02:33:24.453Z,4.85
2023-07-15T02:35:51.505Z,4.22
2023-07-15T02:38:18.364Z,4.22
2023-07-15T02:40:47.669Z,4.30
2023-07-15T02:43:15.045Z,4.20
2023-07-15T02:45:42.032Z,5.20
2023-07-15T02:48:08.921Z,4.57
2023-07-15T02:50:35.802Z,5.22
2023-07-15T02:53:04.291Z,5.07
2023-07-15T02:55:31.446Z,4.68
2023-07-15T02:57:58.521Z,4.85
2023-07-15T03:00:25.461Z,5.15
2023-07-15T03:02:53.008Z,5.00
2023-07-15T03:05:20.033Z,4.75
2023-07-15T03:07:50.386Z,4.50
2023-07-15T03:10:17.400Z,4.82
2023-07-15T03:12:44.685Z,4.82
2023-07-15T03:15:11.437Z,4.50
2023-07-15T03:17:38.206Z,5.30
2023-07-15T03:20:16.343Z,5.10
2023-07-15T03:22:43.864Z,5.00
2023-07-15T03:25:11.089Z,4.20
2023-07-15T03:27:38.559Z,4.88
2023-07-15T03:30:09.342Z,5.25
2023-07-15T03:32:38.342Z,4.47
2023-07-15T03:35:05.921Z,4.40
2023-07-15T03:37:34.956Z,5.10
2023-07-15T03:40:02.371Z,5.45
2023-07-15T03:42:29.466Z,5.13
2023-07-15T03:44:56.253Z,5.65
2023-07-15T03:47:23.362Z,4.80
2023-07-15T03:49:50.339Z,5.10
2023-07-15T03:52:17.146Z,5.13
2023-07-15T03:54:44.345Z,4.53
2023-07-15T03:57:11.637Z,4.97
2023-07-15T03:59:38.704Z,4.55
2023-07-15T04:02:06.122Z,5.38
2023-07-15T04:04:33.191Z,5.47
2023-07-15T04:07:01.030Z,5.72
2023-07-15T04:09:29.133Z,4.90
2023-07-15T04:11:57.149Z,5.25
2023-07-15T04:14:24.231Z,5.32
2023-07-15T04:16:50.959Z,5.60
2023-07-15T04:19:17.964Z,5.30
2023-07-15T04:21:44.915Z,5.35
2023-07-15T04:24:12.359Z,5.13
2023-07-15T04:26:39.166Z,5.00
2023-07-15T04:29:07.482Z,5.88
2023-07-15T04:31:34.330Z,5.20
2023-07-15T04:34:01.940Z,6.03
2023-07-15T04:36:28.770Z,5.45
2023-07-15T04:38:55.553Z,5.05
2023-07-15T04:41:22.394Z,5.68
2023-07-15T04:43:49.266Z,5.75
2023-07-15T04:46:16.471Z,5.82
2023-07-15T04:48:43.664Z,6.47
2023-07-15T04:51:10.406Z,6.10
2023-07-15T04:53:44.006Z,6.75
2023-07-15T04:56:11.587Z,7.20
2023-07-15T04:58:39.946Z,6.85
2023-07-15T05:01:06.871Z,6.63
2023-07-15T05:03:34.542Z,6.60
2023-07-15T05:06:02.063Z,6.40
2023-07-15T05:08:29.193Z,6.55
2023-07-15T05:10:56.383Z,6.65
2023-07-15T05:13:23.244Z,7.13
2023-07-15T05:15:50.187Z,7.45
2023-07-15T05:18:17.403Z,7.30
2023-07-15T05:20:44.506Z,7.45
2023-07-15T05:23:11.478Z,7.30
2023-07-15T05:25:38.274Z,6.93
2023-07-15T05:28:06.257Z,6.65
2023-07-15T05:30:36.461Z,6.15
2023-07-15T05:33:03.265Z,5.50
2023-07-15T05:35:30.062Z,5.38
2023-07-15T05:37:57.388Z,5.00
2023-07-15T05:40:24.475Z,5.25
2023-07-15T05:42:51.237Z,6.35
2023-07-15T05:45:18.445Z,6.13
2023-07-15T05:47:45.631Z,6.00
2023-07-15T05:50:12.460Z,5.47
2023-07-15T05:52:39.279Z,6.15
2023-07-15T05:55:06.708Z,6.03
2023-07-15T05:57:33.841Z,5.38
2023-07-15T06:00:00.805Z,5.90
2023-07-15T06:02:27.923Z,5.22
2023-07-15T06:04:55.020Z,6.25
2023-07-15T06:07:21.984Z,4.80
2023-07-15T06:09:52.788Z,4.90
2023-07-15T06:12:20.117Z,5.38
2023-07-15T06:14:47.406Z,4.90
2023-07-15T06:17:14.249Z,6.00
2023-07-15T06:19:41.374Z,5.97
2023-07-15T06:22:08.299Z,4.85
2023-07-15T06:24:35.334Z,5.15
2023-07-15T06:27:02.284Z,4.00
2023-07-15T06:29:29.618Z,3.92
2023-07-15T06:31:56.436Z,4.43
2023-07-15T06:34:23.329Z,3.92
2023-07-15T06:36:52.605Z,4.18
2023-07-15T06:39:21.557Z,4.30
2023-07-15T06:41:51.030Z,4.35
2023-07-15T06:44:17.971Z,4.00
2023-07-15T06:46:44.866Z,4.03
2023-07-15T06:49:11.943Z,3.65
2023-07-15T06:51:38.868Z,3.95
2023-07-15T06:54:05.777Z,3.47
2023-07-15T06:56:32.850Z,4.15
2023-07-15T06:58:59.844Z,3.42
2023-07-15T07:01:26.813Z,3.53
2023-07-15T07:03:54.440Z,2.92
2023-07-15T07:06:21.512Z,3.35
2023-07-15T07:08:48.894Z,3.05
2023-07-15T07:11:16.002Z,3.53
2023-07-15T07:13:43.391Z,3.20
2023-07-15T07:16:11.104Z,2.95
2023-07-15T07:18:38.477Z,3.13
2023-07-15T07:21:05.429Z,3.00
2023-07-15T07:23:32.316Z,2.70
2023-07-15T07:26:00.086Z,2.60
2023-07-15T07:28:41.223Z,2.90
2023-07-15T07:31:08.599Z,2.80
2023-07-15T07:33:35.460Z,2.53
2023-07-15T07:36:04.596Z,2.65
2023-07-15T07:38:31.667Z,2.60
2023-07-15T07:41:08.635Z,2.70
2023-07-15T07:43:36.369Z,2.40
2023-07-15T07:46:07.204Z,2.15
2023-07-15T07:48:34.050Z,2.75
2023-07-15T07:51:02.446Z,2.70
2023-07-15T07:53:30.316Z,2.70
2023-07-15T07:55:57.431Z,2.58
2023-07-15T07:58:24.378Z,2.53
2023-07-15T08:00:51.381Z,3.10
2023-07-15T08:03:18.867Z,2.90
2023-07-15T08:05:47.736Z,2.55
2023-07-15T08:08:15.772Z,2.83
2023-07-15T08:10:42.751Z,2.75
2023-07-15T08:13:09.771Z,2.60
2023-07-15T08:15:38.117Z,2.45
2023-07-15T08:18:07.438Z,2.53
2023-07-15T08:20:35.082Z,2.47
2023-07-15T08:23:02.815Z,2.58
2023-07-15T08:25:30.312Z,2.50
2023-07-15T08:27:57.153Z,2.60
2023-07-15T08:30:24.049Z,2.50
2023-07-15T08:32:51.486Z,2.63
2023-07-15T08:35:18.703Z,2.53
2023-07-15T08:37:45.892Z,2.40
2023-07-15T08:40:13.148Z,2.40
2023-07-15T08:42:41.146Z,2.53
2023-07-15T08:45:09.038Z,2.35
2023-07-15T08:47:37.235Z,2.15
2023-07-15T08:50:12.826Z,2.28
2023-07-15T08:52:41.293Z,2.03
2023-07-15T08:55:09.101Z,2.10
2023-07-15T08:57:37.055Z,2.05
2023-07-15T09:00:13.105Z,2.03
2023-07-15T09:02:40.435Z,1.95
2023-07-15T09:05:10.435Z,1.60
2023-07-15T09:07:51.318Z,1.88
2023-07-15T09:10:18.931Z,1.83
2023-07-15T09:12:47.249Z,2.17
2023-07-15T09:15:17.528Z,2.08
2023-07-15T09:18:00.391Z,1.98
2023-07-15T09:20:28.257Z,2.00
2023-07-15T09:22:57.391Z,2.10
2023-07-15T09:25:25.943Z,1.85
2023-07-15T09:27:54.364Z,1.88
2023-07-15T09:30:21.636Z,2.33
2023-07-15T09:32:48.988Z,1.80
2023-07-15T09:35:16.632Z,1.92
2023-07-15T09:37:47.635Z,1.75
2023-07-15T09:40:14.611Z,1.70
2023-07-15T09:42:57.615Z,1.65
2023-07-15T09:45:38.717Z,1.65
2023-07-15T09:48:17.583Z,1.90
2023-07-15T09:50:44.815Z,2.05
2023-07-15T09:53:12.888Z,1.50
2023-07-15T09:55:44.192Z,1.35
2023-07-15T09:58:40.476Z,1.40
2023-07-15T10:01:23.070Z,1.65
2023-07-15T10:04:23.765Z,1.40
2023-07-15T10:06:52.931Z,1.50
2023-07-15T10:09:20.940Z,1.30
2023-07-15T10:11:49.565Z,1.42
2023-07-15T10:14:18.454Z,1.08
2023-07-15T10:16:46.360Z,1.35
2023-07-15T10:19:42.569Z,0.93
2023-07-15T10:22:11.139Z,1.25
2023-07-15T10:24:41.265Z,1.27
2023-07-15T10:27:11.390Z,1.30
2023-07-15T10:29:40.293Z,1.58
2023-07-15T10:32:08.457Z,1.65
2023-07-15T10:34:42.607Z,1.50
2023-07-15T10:37:13.347Z,1.45
2023-07-15T10:39:40.314Z,1.30
2023-07-15T10:42:12.290Z,1.40
2023-07-15T10:44:41.596Z,1.23
2023-07-15T10:47:09.734Z,1.25
2023-07-15T10:49:37.002Z,1.13
2023-07-15T10:52:05.383Z,1.35
2023-07-15T10:54:36.604Z,1.38
2023-07-15T10:57:11.100Z,1.73
2023-07-15T10:59:41.095Z,1.50
2023-07-15T11:02:08.911Z,1.60
2023-07-15T11:04:37.396Z,1.33
2023-07-15T11:07:11.462Z,1.50
2023-07-15T11:09:41.960Z,1.50
2023-07-15T11:12:10.997Z,1.75
2023-07-15T11:14:43.753Z,1.40
2023-07-15T11:17:16.034Z,1.60
2023-07-15T11:19:45.512Z,1.30
2023-07-15T11:22:12.965Z,1.52
2023-07-15T11:24:39.979Z,1.60
2023-07-15T11:27:06.954Z,1.60
2023-07-15T11:29:34.047Z,1.60
2023-07-15T11:32:01.362Z,1.63
2023-07-15T11:34:30.035Z,1.45
2023-07-15T11:37:00.073Z,1.65
2023-07-15T11:39:26.946Z,1.63
2023-07-15T11:41:54.176Z,1.42
2023-07-15T11:44:22.678Z,1.38
2023-07-15T11:46:50.232Z,1.70
2023-07-15T11:49:23.220Z,1.58
2023-07-15T11:51:55.113Z,1.75
2023-07-15T11:54:22.057Z,1.70
2023-07-15T11:56:49.438Z,1.90
2023-07-15T11:59:31.799Z,1.63
2023-07-15T12:02:04.747Z,1.80
2023-07-15T12:04:32.442Z,2.00
2023-07-15T12:07:05.165Z,1.90
2023-07-15T12:09:32.647Z,2.00
2023-07-15T12:11:59.926Z,2.10
2023-07-15T12:14:27.243Z,1.70
2023-07-15T12:17:00.206Z,1.80
2023-07-15T12:19:29.427Z,1.65
2023-07-15T12:21:56.605Z,1.73
2023-07-15T12:24:23.499Z,1.90
2023-07-15T12:26:50.303Z,2.05
2023-07-15T12:29:17.121Z,1.80
2023-07-15T12:31:43.944Z,2.10
2023-07-15T12:34:10.879Z,1.83
2023-07-15T12:36:37.829Z,1.88
2023-07-15T12:39:05.437Z,2.08
2023-07-15T12:41:32.348Z,1.80
2023-07-15T12:43:59.931Z,2.08
2023-07-15T12:46:26.918Z,1.77
2023-07-15T12:48:54.843Z,2.22
2023-07-15T12:51:21.814Z,1.98
2023-07-15T12:53:48.869Z,1.83
2023-07-15T12:56:16.250Z,2.00
2023-07-15T12:58:43.362Z,2.08
2023-07-15T13:01:10.237Z,1.67
2023-07-15T13:03:37.787Z,1.90
2023-07-15T13:06:06.324Z,1.65
2023-07-15T13:08:33.122Z,2.00
2023-07-15T13:10:59.905Z,1.70
2023-07-15T13:13:26.887Z,1.60
2023-07-15T13:15:53.792Z,1.95
2023-07-15T13:18:21.003Z,1.95
2023-07-15T13:20:47.801Z,1.58
2023-07-15T13:23:14.763Z,1.88
2023-07-15T13:25:41.639Z,1.60
2023-07-15T13:28:11.089Z,1.70
2023-07-15T13:30:37.934Z,1.58
2023-07-15T13:33:05.004Z,1.73
2023-07-15T13:35:31.851Z,1.65
2023-07-15T13:37:58.733Z,1.77
2023-07-15T13:40:25.504Z,1.70
2023-07-15T13:42:53.088Z,2.00
2023-07-15T13:45:20.336Z,1.80
2023-07-15T13:47:52.614Z,1.67
2023-07-15T13:50:20.416Z,1.77
2023-07-15T13:52:48.068Z,1.50
2023-07-15T13:55:15.036Z,1.85
2023-07-15T13:57:41.929Z,1.67
2023-07-15T14:00:13.787Z,1.58
2023-07-15T14:02:41.692Z,1.70
2023-07-15T14:05:09.050Z,1.70
2023-07-15T14:07:36.017Z,1.90
2023-07-15T14:10:03.355Z,1.83
2023-07-15T14:12:30.670Z,1.80
2023-07-15T14:14:58.229Z,1.73
2023-07-15T14:17:25.197Z,1.52
2023-07-15T14:19:54.986Z,1.70
2023-07-15T14:22:30.687Z,1.85
2023-07-15T14:25:01.513Z,1.60
2023-07-15T14:27:28.955Z,1.85
2023-07-15T14:29:55.812Z,1.70
2023-07-15T14:32:22.765Z,1.80
2023-07-15T14:34:49.865Z,1.70
2023-07-15T14:37:17.314Z,1.80
2023-07-15T14:39:44.497Z,1.88
2023-07-15T14:42:11.953Z,1.70
2023-07-15T14:44:39.590Z,1.70
2023-07-15T14:47:07.093Z,1.70
2023-07-15T14:49:35.436Z,1.85
2023-07-15T14:52:02.509Z,1.55
2023-07-15T14:54:31.939Z,1.70
2023-07-15T14:56:59.681Z,1.67
2023-07-15T14:59:26.717Z,1.80
2023-07-15T15:01:53.517Z,1.60
2023-07-15T15:04:20.418Z,1.48
2023-07-15T15:06:49.432Z,1.75
2023-07-15T15:09:18.485Z,1.70
2023-07-15T15:11:45.310Z,1.70
2023-07-15T15:14:12.486Z,1.63
2023-07-15T15:16:39.580Z,1.70
2023-07-15T15:19:06.438Z,1.63
2023-07-15T15:21:33.234Z,1.70
2023-07-15T15:24:01.941Z,1.80
2023-07-15T15:26:28.919Z,1.77
2023-07-15T15:29:00.443Z,1.80
2023-07-15T15:31:27.398Z,1.60
2023-07-15T15:33:54.302Z,1.73
2023-07-15T15:36:21.121Z,1.70
2023-07-15T15:38:47.912Z,1.80
2023-07-15T15:41:15.593Z,1.60
2023-07-15T15:43:43.064Z,1.55
2023-07-15T15:46:10.267Z,1.50
2023-07-15T15:48:38.695Z,1.55
2023-07-15T15:51:10.377Z,1.50
2023-07-15T15:53:39.902Z,1.70
2023-07-15T15:56:07.109Z,1.98
2023-07-15T15:58:33.905Z,1.40
2023-07-15T16:01:01.244Z,1.50
2023-07-15T16:03:30.272Z,1.50
2023-07-15T16:05:58.477Z,1.83
2023-07-15T16:08:25.400Z,1.73
2023-07-15T16:10:52.231Z,1.50
2023-07-15T16:13:19.399Z,1.40
2023-07-15T16:15:47.559Z,1.70
2023-07-15T16:18:14.623Z,1.50
2023-07-15T16:20:41.395Z,1.65
2023-07-15T16:23:08.880Z,1.38
2023-07-15T16:25:35.870Z,1.50
2023-07-15T16:28:02.750Z,1.58
2023-07-15T16:30:29.621Z,1.75
2023-07-15T16:32:56.777Z,1.50
2023-07-15T16:35:24.801Z,1.48
2023-07-15T16:37:52.061Z,1.52
2023-07-15T16:40:18.941Z,1.50
2023-07-15T16:42:46.432Z,1.55
2023-07-15T16:45:14.342Z,1.40
2023-07-15T16:47:41.852Z,1.63
2023-07-15T16:50:10.104Z,1.40
2023-07-15T16:52:36.920Z,1.58
2023-07-15T16:55:04.128Z,1.58
2023-07-15T16:57:30.886Z,1.58
2023-07-15T16:59:57.987Z,1.52
2023-07-15T17:02:24.879Z,1.60
2023-07-15T17:04:51.753Z,1.33
2023-07-15T17:07:18.732Z,1.55
2023-07-15T17:09:45.522Z,1.23
2023-07-15T17:12:13.555Z,1.30
2023-07-15T17:14:40.336Z,1.38
2023-07-15T17:17:07.114Z,1.85
2023-07-15T17:19:33.966Z,1.33
2023-07-15T17:22:00.785Z,1.48
2023-07-15T17:24:27.608Z,1.40
2023-07-15T17:26:56.186Z,1.50
2023-07-15T17:29:22.990Z,1.52
2023-07-15T17:31:49.786Z,1.50
2023-07-15T17:34:16.936Z,1.50
2023-07-15T17:36:43.718Z,1.40
2023-07-15T17:39:10.499Z,1.77
2023-07-15T17:41:37.268Z,1.50
2023-07-15T17:44:06.682Z,1.77
2023-07-15T17:46:33.687Z,1.40
2023-07-15T17:49:00.975Z,1.48
2023-07-15T17:51:27.834Z,1.60
2023-07-15T17:53:54.633Z,1.55
2023-07-15T17:56:22.241Z,1.70
2023-07-15T17:58:49.105Z,1.33
2023-07-15T18:01:16.070Z,2.08
2023-07-15T18:03:43.127Z,1.80
2023-07-15T18:06:10.175Z,1.65
2023-07-15T18:08:36.934Z,1.50
2023-07-15T18:11:04.171Z,1.42
2023-07-15T18:13:30.959Z,1.63
2023-07-15T18:15:57.840Z,1.52
2023-07-15T18:18:24.690Z,1.70
2023-07-15T18:20:51.468Z,1.65
2023-07-15T18:23:18.250Z,1.52
2023-07-15T18:25:45.141Z,1.60
2023-07-15T18:28:12.005Z,1.60
2023-07-15T18:30:40.558Z,1.58
2023-07-15T18:33:10.485Z,1.83
2023-07-15T18:35:37.967Z,1.40
2023-07-15T18:38:05.247Z,1.55
2023-07-15T18:40:32.055Z,1.50
2023-07-15T18:42:59.294Z,1.80
2023-07-15T18:45:26.085Z,2.05
2023-07-15T18:47:53.312Z,1.90
2023-07-15T18:50:20.205Z,2.00
2023-07-15T18:52:47.036Z,2.15
2023-07-15T18:55:13.899Z,1.90
2023-07-15T18:57:40.658Z,1.92
2023-07-15T19:00:09.178Z,2.42
2023-07-15T19:02:36.328Z,2.80
2023-07-15T19:05:03.580Z,2.47
2023-07-15T19:07:31.585Z,2.90
2023-07-15T19:09:58.852Z,2.92
2023-07-15T19:12:25.689Z,2.22
2023-07-15T19:14:52.909Z,2.05
2023-07-15T19:17:19.821Z,1.92
2023-07-15T19:19:46.907Z,2.00
2023-07-15T19:22:14.088Z,1.90
2023-07-15T19:24:40.881Z,2.20
2023-07-15T19:27:09.602Z,2.50
2023-07-15T19:29:37.264Z,2.05
2023-07-15T19:32:04.859Z,2.20
2023-07-15T19:34:33.145Z,2.33
2023-07-15T19:36:59.961Z,2.10
2023-07-15T19:39:26.782Z,2.20
2023-07-15T19:41:53.696Z,2.20
2023-07-15T19:44:20.614Z,2.20
2023-07-15T19:46:47.457Z,2.28
2023-07-15T19:49:17.290Z,2.50
2023-07-15T19:51:46.338Z,2.40
2023-07-15T19:54:14.159Z,2.35
2023-07-15T19:56:41.195Z,2.72
2023-07-15T19:59:08.052Z,2.53
2023-07-15T20:01:35.138Z,2.20
2023-07-15T20:04:02.844Z,2.40
2023-07-15T20:06:29.864Z,2.50
2023-07-15T20:08:57.855Z,2.70
2023-07-15T20:11:24.651Z,2.10
2023-07-15T20:13:51.514Z,2.13
2023-07-15T20:16:18.764Z,2.50
2023-07-15T20:18:46.041Z,2.38
2023-07-15T20:21:12.823Z,2.60
2023-07-15T20:23:39.600Z,2.90
2023-07-15T20:26:06.388Z,2.80
2023-07-15T20:28:33.176Z,2.55
2023-07-15T20:31:00.818Z,2.70
2023-07-15T20:33:27.662Z,2.63
2023-07-15T20:35:54.458Z,2.75
2023-07-15T20:38:21.272Z,2.53
2023-07-15T20:40:56.311Z,2.70
2023-07-15T20:43:24.517Z,2.60
2023-07-15T20:45:51.458Z,2.90
2023-07-15T20:48:18.626Z,2.90
2023-07-15T20:50:45.429Z,2.90
2023-07-15T20:53:13.116Z,3.00
2023-07-15T20:55:41.047Z,2.95
2023-07-15T20:58:08.202Z,3.10
2023-07-15T21:00:35.298Z,3.17
2023-07-15T21:03:02.404Z,3.58
2023-07-15T21:05:29.361Z,3.30
2023-07-15T21:07:56.251Z,3.03
2023-07-15T21:10:23.286Z,3.10
2023-07-15T21:12:50.101Z,2.78
2023-07-15T21:15:16.951Z,3.05
2023-07-15T21:17:43.798Z,3.13
2023-07-15T21:20:10.980Z,3.35
2023-07-15T21:22:37.783Z,3.08
2023-07-15T21:25:05.259Z,3.10
2023-07-15T21:27:32.026Z,3.22
2023-07-15T21:29:58.854Z,3.08
2023-07-15T21:32:28.337Z,3.78
2023-07-15T21:34:55.162Z,3.35
2023-07-15T21:37:21.963Z,3.15
2023-07-15T21:39:48.779Z,3.40
2023-07-15T21:42:15.558Z,3.40
2023-07-15T21:44:42.646Z,3.35
2023-07-15T21:47:09.477Z,3.53
2023-07-15T21:49:36.245Z,3.45
2023-07-15T21:52:03.129Z,2.92
2023-07-15T21:54:29.976Z,3.78
2023-07-15T21:56:56.845Z,3.13
2023-07-15T21:59:23.635Z,3.67
2023-07-15T22:01:50.414Z,3.70
2023-07-15T22:04:17.236Z,3.05
2023-07-15T22:06:44.020Z,3.25
2023-07-15T22:09:10.975Z,3.65
2023-07-15T22:11:37.769Z,3.50
2023-07-15T22:14:04.557Z,3.40
2023-07-15T22:16:31.863Z,3.63
2023-07-15T22:18:58.820Z,3.35
2023-07-15T22:21:25.739Z,3.88
2023-07-15T22:23:52.576Z,3.80
2023-07-15T22:26:19.463Z,3.60
2023-07-15T22:28:47.033Z,3.55
2023-07-15T22:31:13.927Z,3.90
2023-07-15T22:33:40.729Z,4.13
2023-07-15T22:36:07.538Z,3.25
2023-07-15T22:38:34.402Z,4.20
2023-07-15T22:41:01.216Z,3.83
2023-07-15T22:43:28.091Z,3.45
2023-07-15T22:45:56.431Z,3.30
2023-07-15T22:48:28.303Z,3.70
2023-07-15T22:50:55.402Z,3.47
2023-07-15T22:53:24.378Z,3.60
2023-07-15T22:55:51.220Z,3.38
2023-07-15T22:58:18.100Z,3.40
2023-07-15T23:00:45.036Z,3.60
2023-07-15T23:03:12.021Z,3.67
2023-07-15T23:05:38.866Z,3.65
2023-07-15T23:08:05.664Z,3.50
2023-07-15T23:10:32.484Z,3.67
2023-07-15T23:12:59.317Z,3.40
2023-07-15T23:15:26.545Z,3.60
2023-07-15T23:17:53.429Z,3.40
2023-07-15T23:20:20.358Z,3.30
2023-07-15T23:22:47.168Z,3.10
2023-07-15T23:25:13.974Z,3.40
2023-07-15T23:27:40.860Z,3.17
2023-07-15T23:30:08.588Z,3.20
2023-07-15T23:32:35.458Z,2.80
2023-07-15T23:35:02.640Z,3.38
2023-07-15T23:37:30.278Z,2.72
2023-07-15T23:39:57.118Z,2.67
2023-07-15T23:42:24.683Z,3.00
2023-07-15T23:44:51.665Z,2.70
2023-07-15T23:47:18.656Z,2.90
2023-07-15T23:49:47.839Z,2.80
2023-07-15T23:52:18.150Z,3.30
2023-07-15T23:54:45.044Z,2.65
2023-07-15T23:57:11.900Z,2.78
2023-07-15T23:59:38.698Z,2.83
